Time;durP1;ratioP1;P1;durP2;ratioP2;P2;SDS_P1;SDS_P2;PMS_P1;PMS_P2;Temp;Humidity;BMP_temperature;BMP_pressure;BME280_temperature;BME280_humidity;BME280_pressure;Samples;Min_cycle;Max_cycle;Signal;HPM_P1;HPM_P2
2022/12/27 00:01:28;;;;;;;1.97;1.10;;;11.40;44.90;;;;;;4994693;28;20271;-71
2022/12/27 00:03:54;;;;;;;2.00;1.10;;;11.30;42.90;;;;;;4993245;28;20181;-72
2022/12/27 00:06:21;;;;;;;2.87;1.40;;;11.20;41.90;;;;;;4993200;28;20701;-72
2022/12/27 00:08:48;;;;;;;1.90;1.00;;;10.30;44.80;;;;;;4994307;28;20927;-73
2022/12/27 00:11:17;;;;;;;2.00;1.10;;;9.70;46.70;;;;;;4993538;28;20309;-74
2022/12/27 00:13:43;;;;;;;2.00;1.10;;;10.00;46.90;;;;;;4993997;28;20174;-71
2022/12/27 00:16:12;;;;;;;2.10;1.20;;;10.30;45.90;;;;;;4992832;28;20719;-70
2022/12/27 00:18:39;;;;;;;2.67;1.50;;;9.60;50.70;;;;;;4994003;28;20184;-71
2022/12/27 00:21:06;;;;;;;1.85;1.10;;;9.70;49.30;;;;;;4992803;28;20606;-71
2022/12/27 00:23:35;;;;;;;2.10;1.20;;;9.50;49.10;;;;;;4993468;28;20267;-74
2022/12/27 00:26:06;;;;;;;2.42;1.33;;;9.50;49.50;;;;;;4993518;28;20209;-70
2022/12/27 00:28:32;;;;;;;1.98;1.13;;;9.40;47.80;;;;;;4986180;28;20263;-73
2022/12/27 00:30:59;;;;;;;2.00;1.20;;;9.60;48.90;;;;;;4993957;28;20200;-72
2022/12/27 00:33:26;;;;;;;1.98;1.00;;;9.80;48.50;;;;;;4991361;28;20591;-70
2022/12/27 00:35:52;;;;;;;1.90;1.10;;;9.20;50.30;;;;;;4992162;28;20174;-71
2022/12/27 00:38:19;;;;;;;2.00;1.10;;;9.00;52.40;;;;;;4993809;28;20675;-73
2022/12/27 00:40:44;;;;;;;1.90;1.10;;;9.40;53.20;;;;;;4993843;28;20563;-71
2022/12/27 00:43:10;;;;;;;2.00;1.10;;;9.80;49.40;;;;;;4993082;28;20191;-71
2022/12/27 00:45:35;;;;;;;2.00;1.20;;;9.50;50.70;;;;;;4992996;28;20212;-70
2022/12/27 00:48:01;;;;;;;1.90;1.03;;;9.70;52.40;;;;;;4992260;28;20293;-71
2022/12/27 00:50:26;;;;;;;2.00;1.20;;;9.40;50.50;;;;;;4993503;28;20201;-72
2022/12/27 00:52:52;;;;;;;1.87;1.00;;;9.50;50.80;;;;;;4992658;28;20236;-70
2022/12/27 00:55:18;;;;;;;2.10;1.40;;;9.30;49.70;;;;;;4988099;28;21108;-71
2022/12/27 00:57:43;;;;;;;2.00;1.20;;;9.40;50.50;;;;;;4991159;28;20179;-70
2022/12/27 01:00:09;;;;;;;3.93;1.97;;;9.20;50.40;;;;;;4992263;28;20203;-71
2022/12/27 01:02:35;;;;;;;1.90;1.10;;;8.70;52.30;;;;;;4992528;28;20177;-71
2022/12/27 01:05:01;;;;;;;1.90;1.10;;;8.80;53.30;;;;;;4993382;28;20183;-70
2022/12/27 01:07:27;;;;;;;1.90;1.07;;;8.40;53.90;;;;;;4993273;28;20194;-74
2022/12/27 01:09:52;;;;;;;2.10;1.30;;;8.30;56.20;;;;;;4984897;28;20249;-70
2022/12/27 01:12:18;;;;;;;2.00;1.10;;;8.40;54.40;;;;;;4989852;28;20188;-70
2022/12/27 01:14:44;;;;;;;1.80;1.00;;;8.50;53.60;;;;;;4992898;28;20170;-71
2022/12/27 01:17:09;;;;;;;1.87;1.10;;;8.60;53.00;;;;;;4993099;28;20193;-71
2022/12/27 01:19:36;;;;;;;2.60;1.70;;;8.50;53.90;;;;;;4991857;28;20813;-73
2022/12/27 01:22:02;;;;;;;1.90;1.10;;;8.60;53.20;;;;;;4991264;28;20262;-71
2022/12/27 01:24:28;;;;;;;1.90;1.10;;;8.80;52.00;;;;;;4991583;28;20195;-71
2022/12/27 01:26:53;;;;;;;1.90;1.10;;;8.70;52.40;;;;;;4992876;28;20612;-71
2022/12/27 01:29:19;;;;;;;2.00;1.20;;;8.50;53.10;;;;;;4992552;28;20197;-70
2022/12/27 01:31:44;;;;;;;2.00;1.17;;;8.70;52.70;;;;;;4992534;28;20167;-70
2022/12/27 01:34:10;;;;;;;1.83;1.07;;;9.30;51.00;;;;;;4992075;28;20188;-71
2022/12/27 01:36:36;;;;;;;2.30;1.23;;;9.50;48.80;;;;;;4991839;28;20735;-70
2022/12/27 01:39:02;;;;;;;1.90;1.10;;;9.60;48.70;;;;;;4990631;28;20196;-70
2022/12/27 01:44:42;;;;;;;1.98;1.10;;;10.10;46.10;;;;;;4991519;28;20229;-72
2022/12/27 01:47:38;;;;;;;1.90;1.10;;;10.00;45.40;;;;;;4989064;28;20202;-70
2022/12/27 01:50:29;;;;;;;1.90;1.10;;;9.60;48.00;;;;;;4992007;28;20200;-72
2022/12/27 01:53:16;;;;;;;2.00;1.17;;;9.90;47.90;;;;;;4991393;28;20182;-71
2022/12/27 01:55:44;;;;;;;1.90;1.10;;;10.10;45.80;;;;;;4978466;28;20185;-70
2022/12/27 01:58:31;;;;;;;1.90;1.15;;;10.20;45.20;;;;;;4991846;28;20202;-70
2022/12/27 02:00:57;;;;;;;2.00;1.10;;;10.30;45.20;;;;;;4992257;28;20567;-71
2022/12/27 02:03:28;;;;;;;1.90;1.10;;;10.40;44.70;;;;;;4991705;28;20596;-71
2022/12/27 02:05:56;;;;;;;2.00;1.20;;;10.20;44.60;;;;;;4990567;28;20699;-71
2022/12/27 02:08:55;;;;;;;2.00;1.20;;;9.90;44.60;;;;;;4990717;28;20287;-70
2022/12/27 02:14:11;;;;;;;2.00;1.20;;;9.60;44.50;;;;;;4991379;28;20197;-71
2022/12/27 02:16:37;;;;;;;2.10;1.30;;;9.20;44.10;;;;;;4991064;28;20198;-71
2022/12/27 02:19:11;;;;;;;1.90;1.10;;;8.30;46.70;;;;;;4990528;28;20684;-74
2022/12/27 02:22:10;;;;;;;1.90;1.10;;;8.10;46.90;;;;;;4991887;28;20214;-70
2022/12/27 02:24:36;;;;;;;2.00;1.17;;;8.00;46.20;;;;;;4982781;28;20181;-70
2022/12/27 02:27:05;;;;;;;2.00;1.10;;;8.10;45.00;;;;;;4991911;28;20272;-70
2022/12/27 02:29:58;;;;;;;2.00;1.10;;;7.70;45.00;;;;;;4991041;28;20253;-70
2022/12/27 02:32:33;;;;;;;2.05;1.17;;;7.70;45.90;;;;;;4991794;28;20668;-70
2022/12/27 02:35:14;;;;;;;2.00;1.20;;;7.30;45.60;;;;;;4989716;28;20217;-73
2022/12/27 02:37:58;;;;;;;1.90;1.10;;;7.50;45.90;;;;;;4972417;28;20244;-70
2022/12/27 02:55:29;;;;;;;2.00;1.10;;;7.70;43.90;;;;;;4984337;28;20197;-72
2022/12/27 02:58:03;;;;;;;1.90;1.20;;;8.10;43.60;;;;;;4930122;29;20227;-70
2022/12/27 03:04:07;;;;;;;1.90;1.10;;;8.70;43.20;;;;;;4916663;29;20192;-72
2022/12/27 03:06:39;;;;;;;1.90;1.10;;;8.60;43.60;;;;;;4875980;29;20238;-70
2022/12/27 03:16:12;;;;;;;2.00;1.30;;;8.70;42.70;;;;;;4896213;29;20196;-70
2022/12/27 03:18:45;;;;;;;1.80;1.08;;;8.70;44.30;;;;;;4921668;29;20176;-70
2022/12/27 03:26:50;;;;;;;1.90;1.15;;;8.90;42.30;;;;;;4928306;29;20267;-70
2022/12/27 03:34:59;;;;;;;1.90;1.10;;;8.60;43.00;;;;;;4994381;28;20275;-72
2022/12/27 03:40:19;;;;;;;1.90;1.10;;;8.60;42.90;;;;;;4995307;28;20228;-73
2022/12/27 03:43:11;;;;;;;1.90;1.17;;;8.50;43.30;;;;;;4993328;28;20274;-71
2022/12/27 03:46:32;;;;;;;2.00;1.20;;;8.50;42.40;;;;;;4992763;28;20178;-70
2022/12/27 03:49:15;;;;;;;1.85;1.05;;;8.60;42.50;;;;;;4981458;28;20178;-70
2022/12/27 03:51:50;;;;;;;1.90;1.10;;;8.40;43.10;;;;;;4992264;28;20190;-73
2022/12/27 03:54:25;;;;;;;1.90;1.20;;;8.40;43.00;;;;;;4988855;28;20185;-71
2022/12/27 03:56:59;;;;;;;1.90;1.10;;;8.30;42.60;;;;;;4984864;28;20217;-70
2022/12/27 03:59:25;;;;;;;1.80;1.10;;;7.90;44.60;;;;;;4980844;28;20194;-70
2022/12/27 04:01:51;;;;;;;1.80;1.00;;;7.80;44.50;;;;;;4972637;28;20213;-70
2022/12/27 04:04:16;;;;;;;1.90;1.10;;;8.00;44.30;;;;;;4978731;28;20193;-71
2022/12/27 04:06:42;;;;;;;2.30;1.30;;;7.80;44.80;;;;;;4989405;28;20210;-70
2022/12/27 04:36:32;;;;;;;1.90;1.20;;;7.30;46.10;;;;;;4992638;28;20212;-70
2022/12/27 04:38:58;;;;;;;1.80;1.10;;;7.20;46.50;;;;;;4991855;28;20181;-69
2022/12/27 04:55:26;;;;;;;1.80;1.10;;;7.20;46.00;;;;;;4981629;28;20245;-70
2022/12/27 04:57:53;;;;;;;1.80;1.10;;;7.10;46.80;;;;;;4993507;28;20257;-76
2022/12/27 05:03:15;;;;;;;1.80;1.10;;;7.00;47.00;;;;;;4991203;28;20283;-70
2022/12/27 05:05:42;;;;;;;1.90;1.15;;;7.00;47.00;;;;;;4992964;28;20228;-74
2022/12/27 05:16:22;;;;;;;2.00;1.30;;;7.00;46.20;;;;;;4992728;28;20240;-71
2022/12/27 05:18:47;;;;;;;1.80;1.10;;;6.90;46.80;;;;;;4990930;28;20568;-70
2022/12/27 05:21:13;;;;;;;1.80;1.10;;;7.00;46.80;;;;;;4991190;28;20736;-70
2022/12/27 05:26:26;;;;;;;1.77;1.10;;;6.90;46.40;;;;;;4992575;28;20255;-70
2022/12/27 05:28:53;;;;;;;1.98;1.20;;;6.90;46.80;;;;;;4985672;28;20654;-70
2022/12/27 05:31:20;;;;;;;1.70;1.00;;;6.90;46.90;;;;;;4991451;28;20194;-70
2022/12/27 05:33:47;;;;;;;1.80;1.10;;;7.30;45.30;;;;;;4992529;28;20614;-72
2022/12/27 05:36:12;;;;;;;1.90;1.20;;;7.40;44.80;;;;;;4992716;28;20249;-70
2022/12/27 05:38:38;;;;;;;1.83;1.13;;;7.20;45.10;;;;;;4990076;28;20182;-71
2022/12/27 05:41:04;;;;;;;1.80;1.10;;;6.90;45.80;;;;;;4992236;28;20591;-73
2022/12/27 05:43:30;;;;;;;1.90;1.20;;;6.70;46.40;;;;;;4992069;28;20862;-70
2022/12/27 05:46:07;;;;;;;1.80;1.10;;;6.80;46.30;;;;;;4992454;28;20446;-70
2022/12/27 05:48:33;;;;;;;1.85;1.13;;;7.00;45.70;;;;;;4974966;28;20677;-70
2022/12/27 05:51:08;;;;;;;1.90;1.27;;;7.00;45.00;;;;;;4988123;28;20206;-70
2022/12/27 05:53:34;;;;;;;1.90;1.10;;;6.90;45.60;;;;;;4992002;28;20260;-70
2022/12/27 05:56:00;;;;;;;1.90;1.20;;;7.10;45.00;;;;;;4985613;28;20662;-70
2022/12/27 05:58:26;;;;;;;1.80;1.10;;;7.10;45.10;;;;;;4992253;28;20249;-70
2022/12/27 06:00:52;;;;;;;2.10;1.58;;;7.20;44.20;;;;;;4990139;28;20193;-70
2022/12/27 06:03:18;;;;;;;1.77;1.07;;;7.20;44.30;;;;;;4991828;28;20657;-72
2022/12/27 06:05:43;;;;;;;1.80;1.10;;;6.80;45.30;;;;;;4992205;28;20701;-70
2022/12/27 06:08:09;;;;;;;1.83;1.10;;;7.00;44.40;;;;;;4990043;28;20289;-70
2022/12/27 06:10:35;;;;;;;2.20;1.33;;;7.00;44.50;;;;;;4991981;28;20433;-70
2022/12/27 06:13:02;;;;;;;1.87;1.17;;;6.90;44.50;;;;;;4990569;28;20205;-71
2022/12/27 06:15:28;;;;;;;1.80;1.10;;;6.70;45.30;;;;;;4990460;28;20432;-70
2022/12/27 06:17:53;;;;;;;1.80;1.20;;;6.60;45.40;;;;;;4980173;28;20186;-70
2022/12/27 06:20:20;;;;;;;1.70;1.10;;;6.80;44.90;;;;;;4991211;28;20468;-72
2022/12/27 06:22:46;;;;;;;1.80;1.10;;;6.80;44.50;;;;;;4990475;28;20180;-70
2022/12/27 06:25:11;;;;;;;1.80;1.20;;;6.60;45.30;;;;;;4991539;28;20186;-70
2022/12/27 06:27:37;;;;;;;1.93;1.27;;;6.80;44.70;;;;;;4991449;28;20236;-74
2022/12/27 06:30:03;;;;;;;1.90;1.10;;;6.70;44.50;;;;;;4990199;28;20197;-72
2022/12/27 06:32:29;;;;;;;1.80;1.20;;;6.60;45.30;;;;;;4998087;28;20180;-70
2022/12/27 06:34:55;;;;;;;1.73;1.10;;;6.60;45.40;;;;;;4998330;28;20178;-70
2022/12/27 06:37:20;;;;;;;2.00;1.23;;;6.60;45.40;;;;;;4998384;28;20776;-70
2022/12/27 06:39:46;;;;;;;1.80;1.20;;;6.80;44.50;;;;;;4995583;28;20230;-70
2022/12/27 06:42:12;;;;;;;1.80;1.20;;;6.80;45.80;;;;;;4997324;28;20185;-71
2022/12/27 06:44:37;;;;;;;1.90;1.20;;;6.80;44.70;;;;;;4997273;28;20632;-70
2022/12/27 06:47:03;;;;;;;2.10;1.20;;;6.80;44.20;;;;;;4992973;28;20196;-70
2022/12/27 06:49:28;;;;;;;2.30;1.43;;;7.30;44.90;;;;;;4998200;28;20235;-70
2022/12/27 06:51:54;;;;;;;1.77;1.10;;;6.60;44.80;;;;;;4994973;28;20556;-71
2022/12/27 06:54:20;;;;;;;1.80;1.10;;;6.40;45.50;;;;;;4998023;28;20182;-72
2022/12/27 06:56:46;;;;;;;1.90;1.20;;;6.30;45.80;;;;;;4998153;28;20416;-73
2022/12/27 06:59:12;;;;;;;1.80;1.10;;;6.40;46.40;;;;;;4998324;28;20178;-70
2022/12/27 07:01:38;;;;;;;1.90;1.20;;;6.40;45.80;;;;;;4995805;28;20283;-70
2022/12/27 07:04:04;;;;;;;2.07;1.40;;;6.20;45.80;;;;;;4996808;28;20463;-70
2022/12/27 07:06:31;;;;;;;1.90;1.10;;;6.50;45.30;;;;;;4996185;28;20491;-70
2022/12/27 07:08:58;;;;;;;1.80;1.10;;;6.80;43.90;;;;;;4996808;28;20428;-71
2022/12/27 07:11:24;;;;;;;3.22;1.65;;;6.70;44.00;;;;;;4997594;28;20205;-70
2022/12/27 07:13:52;;;;;;;1.70;1.08;;;6.70;44.00;;;;;;4989938;28;20193;-70
2022/12/27 07:16:20;;;;;;;1.80;1.10;;;6.80;43.30;;;;;;4996245;28;20182;-69
2022/12/27 07:18:46;;;;;;;1.80;1.10;;;6.90;43.20;;;;;;4995063;28;20269;-78
2022/12/27 07:21:15;;;;;;;1.80;1.10;;;6.80;43.70;;;;;;4997889;28;20210;-79
2022/12/27 07:23:41;;;;;;;2.10;1.50;;;6.90;43.00;;;;;;4995823;28;20743;-80
2022/12/27 07:26:12;;;;;;;2.00;1.30;;;6.80;43.10;;;;;;4998713;28;20182;-79
2022/12/27 07:28:38;;;;;;;1.80;1.13;;;6.70;44.00;;;;;;4997207;28;20516;-71
2022/12/27 07:31:13;;;;;;;1.95;1.23;;;6.50;44.60;;;;;;4997265;28;20201;-71
2022/12/27 07:33:39;;;;;;;3.03;1.50;;;6.50;44.50;;;;;;4996082;28;20620;-71
2022/12/27 07:36:08;;;;;;;1.80;1.20;;;6.50;44.60;;;;;;4994457;28;20264;-71
2022/12/27 07:38:33;;;;;;;1.80;1.20;;;6.60;44.10;;;;;;4997829;28;20412;-72
2022/12/27 07:41:00;;;;;;;1.90;1.20;;;6.60;44.10;;;;;;4997671;28;20286;-70
2022/12/27 07:43:29;;;;;;;2.28;1.73;;;6.30;46.00;;;;;;4992415;28;20177;-71
2022/12/27 07:46:05;;;;;;;1.83;1.20;;;6.50;45.10;;;;;;4988809;28;20213;-69
2022/12/27 07:48:31;;;;;;;1.83;1.13;;;6.60;44.20;;;;;;4991872;28;20188;-70
2022/12/27 07:50:57;;;;;;;2.00;1.30;;;6.80;43.80;;;;;;4994001;28;20205;-70
2022/12/27 07:53:22;;;;;;;1.80;1.30;;;6.70;43.90;;;;;;4993101;28;20445;-70
2022/12/27 07:55:49;;;;;;;1.70;1.10;;;6.70;43.90;;;;;;4992404;28;20611;-70
2022/12/27 07:58:16;;;;;;;2.90;1.42;;;6.60;44.60;;;;;;4991083;28;20277;-73
2022/12/27 08:00:42;;;;;;;1.90;1.20;;;6.80;43.70;;;;;;4994085;28;20209;-73
2022/12/27 08:03:08;;;;;;;1.77;1.17;;;6.70;44.00;;;;;;4990853;28;20186;-72
2022/12/27 08:05:34;;;;;;;1.80;1.20;;;6.70;44.00;;;;;;4993070;28;20602;-71
2022/12/27 08:08:01;;;;;;;1.77;1.00;;;6.80;44.10;;;;;;4994330;28;20281;-71
2022/12/27 08:10:27;;;;;;;1.80;1.10;;;7.00;44.00;;;;;;4993991;28;20196;-72
2022/12/27 08:12:52;;;;;;;2.20;1.50;;;6.90;44.70;;;;;;4992853;28;20261;-72
2022/12/27 08:15:18;;;;;;;2.00;1.27;;;7.00;43.90;;;;;;4990806;28;20433;-72
2022/12/27 08:17:43;;;;;;;2.17;1.30;;;7.00;44.20;;;;;;4993014;28;20182;-71
2022/12/27 08:20:13;;;;;;;1.80;1.30;;;6.90;44.60;;;;;;4994194;28;20247;-75
2022/12/27 08:22:39;;;;;;;1.75;1.10;;;7.00;44.80;;;;;;4993498;28;20170;-72
2022/12/27 08:25:05;;;;;;;2.40;1.40;;;7.00;44.40;;;;;;4989073;28;20186;-74
2022/12/27 08:27:31;;;;;;;2.00;1.30;;;6.90;45.30;;;;;;4993214;28;20210;-74
2022/12/27 08:29:56;;;;;;;2.30;1.50;;;6.90;45.20;;;;;;4986341;28;20709;-72
2022/12/27 08:32:22;;;;;;;1.80;1.20;;;6.80;46.00;;;;;;4984833;28;20178;-70
2022/12/27 08:34:47;;;;;;;1.80;1.20;;;7.00;45.50;;;;;;4990311;28;20178;-71
2022/12/27 08:37:14;;;;;;;1.90;1.20;;;7.10;45.00;;;;;;4990690;28;20181;-72
2022/12/27 08:39:40;;;;;;;2.80;2.00;;;7.50;44.00;;;;;;4993514;28;20662;-74
2022/12/27 08:42:07;;;;;;;2.00;1.30;;;7.70;43.50;;;;;;4994430;28;20193;-77
2022/12/27 08:44:32;;;;;;;2.45;1.67;;;7.60;43.30;;;;;;4994178;28;20488;-72
2022/12/27 08:46:58;;;;;;;2.73;1.57;;;7.40;45.20;;;;;;4990809;28;20673;-71
2022/12/27 08:49:24;;;;;;;5.10;2.80;;;7.50;44.90;;;;;;4993700;28;20544;-70
2022/12/27 08:51:49;;;;;;;1.93;1.20;;;7.70;44.50;;;;;;4993485;28;20174;-73
2022/12/27 08:54:15;;;;;;;2.10;1.30;;;7.50;45.20;;;;;;4993480;28;20178;-71
2022/12/27 08:56:40;;;;;;;1.80;1.10;;;7.80;45.10;;;;;;4990492;28;20182;-71
2022/12/27 08:59:06;;;;;;;1.80;1.10;;;8.10;43.70;;;;;;4991886;28;20216;-70
2022/12/27 09:01:31;;;;;;;2.60;1.33;;;8.10;44.40;;;;;;4992738;28;20615;-76
2022/12/27 09:03:57;;;;;;;1.80;1.10;;;9.50;45.40;;;;;;4989096;28;20216;-71
2022/12/27 09:06:24;;;;;;;2.50;1.60;;;8.40;43.40;;;;;;4992514;28;20761;-71
2022/12/27 09:08:51;;;;;;;1.80;1.10;;;8.60;42.60;;;;;;4992842;28;20260;-77
2022/12/27 09:11:28;;;;;;;1.90;1.25;;;8.70;41.80;;;;;;4991640;28;20279;-74
2022/12/27 09:13:54;;;;;;;2.45;1.52;;;8.80;40.50;;;;;;4986831;28;20196;-72
2022/12/27 09:16:23;;;;;;;2.17;1.52;;;8.50;41.20;;;;;;4988370;28;20183;-74
2022/12/27 09:18:51;;;;;;;1.98;1.30;;;8.70;41.90;;;;;;4990316;28;20181;-73
2022/12/27 09:21:19;;;;;;;1.90;1.20;;;8.60;42.90;;;;;;4992539;28;20249;-72
2022/12/27 09:23:46;;;;;;;2.55;1.40;;;8.70;41.30;;;;;;4992543;28;20177;-70
2022/12/27 09:26:15;;;;;;;2.00;1.33;;;8.20;42.40;;;;;;4992853;28;20197;-71
2022/12/27 09:28:42;;;;;;;1.80;1.20;;;8.20;42.60;;;;;;4991296;28;20186;-70
2022/12/27 09:31:09;;;;;;;2.10;1.40;;;8.20;42.30;;;;;;4991794;28;20202;-74
2022/12/27 09:33:36;;;;;;;1.80;1.20;;;8.50;40.70;;;;;;4990267;28;20170;-71
2022/12/27 09:36:06;;;;;;;3.55;1.58;;;8.70;41.50;;;;;;4983540;28;20190;-71
2022/12/27 09:38:32;;;;;;;1.77;1.20;;;8.60;40.10;;;;;;4981305;28;20272;-73
2022/12/27 09:41:00;;;;;;;2.00;1.40;;;8.80;41.10;;;;;;4981862;28;20206;-71
2022/12/27 09:44:00;;;;;;;2.10;1.30;;;9.10;39.50;;;;;;4984513;28;20170;-70
2022/12/27 09:46:33;;;;;;;3.03;1.83;;;9.10;39.30;;;;;;4981237;28;20195;-71
2022/12/27 09:48:59;;;;;;;2.10;1.50;;;9.30;39.40;;;;;;4982527;28;20209;-71
2022/12/27 09:51:40;;;;;;;1.97;1.40;;;9.30;39.70;;;;;;4987128;28;20242;-72
2022/12/27 09:54:13;;;;;;;2.00;1.38;;;8.80;40.50;;;;;;4986603;28;20166;-71
2022/12/27 09:56:39;;;;;;;1.88;1.27;;;8.80;40.40;;;;;;4991963;28;20178;-71
2022/12/27 09:59:34;;;;;;;1.98;1.30;;;8.80;41.00;;;;;;4991891;28;20289;-71
2022/12/27 10:02:00;;;;;;;1.92;1.40;;;8.70;41.40;;;;;;4982456;28;20217;-70
2022/12/27 10:04:30;;;;;;;2.70;1.70;;;8.60;43.30;;;;;;4982566;28;20225;-74
2022/12/27 10:07:24;;;;;;;2.22;1.50;;;8.90;41.70;;;;;;4980104;28;20191;-72
2022/12/27 10:09:55;;;;;;;1.80;1.10;;;10.20;42.80;;;;;;4970748;28;20199;-72
2022/12/27 10:12:29;;;;;;;2.40;1.70;;;8.70;41.70;;;;;;4983075;28;20197;-71
2022/12/27 10:15:36;;;;;;;1.77;1.10;;;8.90;41.20;;;;;;4983319;28;20177;-72
2022/12/27 10:18:26;;;;;;;4.15;1.67;;;8.80;40.80;;;;;;4912842;29;20275;-72
2022/12/27 10:21:06;;;;;;;2.10;1.45;;;8.70;40.90;;;;;;4914884;29;20216;-74
2022/12/27 10:23:35;;;;;;;2.67;1.60;;;8.90;40.90;;;;;;4926733;29;20192;-75
2022/12/27 10:26:05;;;;;;;1.80;1.20;;;8.70;41.60;;;;;;4912320;29;20176;-71
2022/12/27 10:28:38;;;;;;;1.80;1.10;;;8.60;42.20;;;;;;4931951;29;20591;-71
2022/12/27 10:31:04;;;;;;;1.80;1.10;;;8.80;42.10;;;;;;4931757;29;20193;-71
2022/12/27 10:33:33;;;;;;;2.00;1.40;;;8.80;41.50;;;;;;4930315;29;20291;-71
2022/12/27 10:36:06;;;;;;;3.15;2.03;;;9.10;40.50;;;;;;4923990;29;20188;-71
2022/12/27 10:38:33;;;;;;;2.10;1.40;;;9.20;41.00;;;;;;4912876;29;20181;-72
2022/12/27 10:41:10;;;;;;;1.90;1.20;;;9.50;39.50;;;;;;4912899;29;20607;-71
2022/12/27 10:43:40;;;;;;;2.03;1.38;;;9.90;39.50;;;;;;4910779;29;20190;-75
2022/12/27 10:46:14;;;;;;;1.83;1.15;;;10.20;37.70;;;;;;4922347;29;20285;-74
2022/12/27 10:48:40;;;;;;;1.90;1.15;;;10.30;37.20;;;;;;4960501;28;20177;-71
2022/12/27 10:51:10;;;;;;;2.00;1.30;;;10.10;37.60;;;;;;4991918;28;20573;-71
2022/12/27 10:53:51;;;;;;;1.90;1.20;;;10.20;35.00;;;;;;4990299;28;20219;-71
2022/12/27 10:56:36;;;;;;;1.80;1.10;;;10.40;34.70;;;;;;4990699;28;20271;-72
2022/12/27 10:59:15;;;;;;;1.88;1.20;;;10.50;34.10;;;;;;4992035;28;20178;-71
2022/12/27 11:01:41;;;;;;;1.95;1.20;;;10.30;33.10;;;;;;4992291;28;20184;-74
2022/12/27 11:04:20;;;;;;;1.80;1.10;;;9.50;37.60;;;;;;4990302;28;20181;-72
2022/12/27 11:06:47;;;;;;;1.83;1.10;;;9.10;38.30;;;;;;4986437;28;20212;-71
2022/12/27 11:09:33;;;;;;;2.00;1.20;;;9.10;37.00;;;;;;4991908;28;20174;-72
2022/12/27 11:12:17;;;;;;;2.00;1.25;;;9.10;38.00;;;;;;5016200;22;20632;31
2022/12/27 11:15:10;;;;;;;1.90;1.20;;;9.70;36.30;;;;;;4965130;28;20858;-72
2022/12/27 11:17:39;;;;;;;1.90;1.10;;;9.90;35.00;;;;;;4966083;28;20164;-71
2022/12/27 11:20:24;;;;;;;1.90;1.10;;;9.80;34.80;;;;;;4975849;28;20201;-74
2022/12/27 11:22:59;;;;;;;1.90;1.10;;;10.00;33.80;;;;;;4971366;28;20215;-74
2022/12/27 11:25:27;;;;;;;1.88;1.10;;;10.10;32.70;;;;;;4975349;28;20174;-72
2022/12/27 11:28:05;;;;;;;2.00;1.10;;;10.50;32.80;;;;;;4974248;28;20206;-71
2022/12/27 11:30:37;;;;;;;2.05;1.10;;;10.50;31.90;;;;;;4968113;28;20181;-71
2022/12/27 11:33:13;;;;;;;2.15;1.20;;;10.40;32.30;;;;;;4974095;28;20187;-71
2022/12/27 11:35:46;;;;;;;2.10;1.10;;;11.10;32.20;;;;;;4968301;28;20186;-71
2022/12/27 11:38:21;;;;;;;2.40;1.30;;;10.90;32.50;;;;;;4975540;28;20175;-72
2022/12/27 11:40:57;;;;;;;4.47;2.90;;;11.60;30.10;;;;;;4973464;28;20190;-71
2022/12/27 11:43:26;;;;;;;2.38;1.23;;;11.70;29.40;;;;;;4974623;28;20816;-72
2022/12/27 11:45:53;;;;;;;2.50;1.20;;;12.20;29.60;;;;;;4975658;28;20253;-71
2022/12/27 11:48:31;;;;;;;2.33;1.10;;;12.90;27.90;;;;;;4971504;28;20210;-72
2022/12/27 11:51:19;;;;;;;2.50;1.20;;;11.70;28.30;;;;;;4958135;28;20443;-71
2022/12/27 11:54:15;;;;;;;2.73;1.30;;;11.40;29.40;;;;;;4971477;28;20546;-71
2022/12/27 11:56:51;;;;;;;2.60;1.10;;;11.20;29.70;;;;;;4956289;29;20411;-71
2022/12/27 11:59:23;;;;;;;2.43;1.10;;;11.80;28.90;;;;;;4956251;29;20983;-72
2022/12/27 12:02:21;;;;;;;2.50;1.10;;;11.80;28.90;;;;;;4964510;28;20465;-74
2022/12/27 12:05:22;;;;;;;3.93;1.53;;;11.10;29.30;;;;;;4969596;28;20426;-74
2022/12/27 12:08:03;;;;;;;2.50;1.02;;;11.60;28.30;;;;;;4974618;28;20555;-72
2022/12/27 12:10:49;;;;;;;2.60;1.10;;;11.10;30.00;;;;;;4973793;28;20175;-72
2022/12/27 12:13:30;;;;;;;2.57;1.13;;;11.50;29.20;;;;;;4964609;28;20895;-72
2022/12/27 12:16:15;;;;;;;2.60;1.30;;;11.30;29.60;;;;;;4974967;28;20446;-72
2022/12/27 12:19:00;;;;;;;2.80;1.30;;;12.20;33.20;;;;;;4974660;28;20493;-72
2022/12/27 12:21:26;;;;;;;2.57;1.20;;;10.30;30.40;;;;;;4974139;28;20405;-72
2022/12/27 12:24:21;;;;;;;2.60;1.20;;;10.00;29.80;;;;;;4973195;28;20450;-72
2022/12/27 12:27:08;;;;;;;2.70;1.20;;;10.30;30.20;;;;;;4955539;29;20658;-72
2022/12/27 12:29:52;;;;;;;2.63;1.20;;;10.70;29.90;;;;;;4954685;28;20395;-72
2022/12/27 12:32:26;;;;;;;3.23;1.40;;;10.50;30.30;;;;;;4955980;28;20510;-71
2022/12/27 12:35:00;;;;;;;2.60;1.10;;;11.20;29.60;;;;;;4969073;28;20533;-72
2022/12/27 12:37:53;;;;;;;2.60;1.10;;;11.40;28.60;;;;;;4972807;28;20420;-73
2022/12/27 12:40:18;;;;;;;2.60;1.13;;;11.20;29.30;;;;;;4974684;28;20394;-71
2022/12/27 12:43:19;;;;;;;2.80;1.30;;;10.70;29.80;;;;;;4974263;28;20854;-71
2022/12/27 12:46:30;;;;;;;2.90;1.27;;;9.90;32.80;;;;;;4967135;28;20277;-72
2022/12/27 12:49:08;;;;;;;2.63;1.10;;;10.90;30.10;;;;;;4937049;29;20516;-72
2022/12/27 12:52:04;;;;;;;3.07;1.50;;;11.40;30.00;;;;;;4954831;29;20918;-72
2022/12/27 12:54:51;;;;;;;2.90;1.40;;;11.30;28.80;;;;;;4954915;28;20392;-71
2022/12/27 12:57:49;;;;;;;2.77;1.10;;;11.40;29.30;;;;;;4966243;28;20445;-71
2022/12/27 13:00:24;;;;;;;2.90;1.20;;;11.10;29.20;;;;;;4953527;29;20945;-72
2022/12/27 13:03:14;;;;;;;2.90;1.17;;;11.70;28.90;;;;;;4954652;29;20442;-73
2022/12/27 13:05:48;;;;;;;3.00;1.30;;;12.30;26.60;;;;;;4954651;29;20384;-71
2022/12/27 13:08:31;;;;;;;2.90;1.40;;;11.70;28.10;;;;;;4965929;28;20804;-71
2022/12/27 13:11:02;;;;;;;2.90;1.43;;;11.00;28.90;;;;;;4974151;28;20449;-71
2022/12/27 13:13:39;;;;;;;2.80;1.30;;;10.60;29.90;;;;;;4973600;28;20473;-74
2022/12/27 13:16:42;;;;;;;2.80;1.30;;;10.80;30.40;;;;;;4973817;28;20390;-71
2022/12/27 13:19:26;;;;;;;2.73;1.30;;;10.50;30.90;;;;;;4957355;28;20438;-74
2022/12/27 13:22:09;;;;;;;3.10;1.60;;;10.30;31.00;;;;;;4962411;28;20441;-71
2022/12/27 13:25:02;;;;;;;2.80;1.40;;;10.70;30.40;;;;;;4958415;28;20437;-73
2022/12/27 13:27:44;;;;;;;2.67;1.20;;;11.20;30.20;;;;;;4971079;28;20465;-71
2022/12/27 13:30:51;;;;;;;2.70;1.20;;;11.10;29.60;;;;;;4968167;28;20430;-72
2022/12/27 13:33:25;;;;;;;2.70;1.10;;;11.30;30.60;;;;;;4959219;28;20458;-73
2022/12/27 13:36:06;;;;;;;2.70;1.27;;;12.20;29.80;;;;;;4964896;28;20959;-75
2022/12/27 13:39:17;;;;;;;2.83;1.30;;;11.80;27.60;;;;;;4961625;28;20940;-76
2022/12/27 13:41:55;;;;;;;3.63;1.50;;;11.80;28.20;;;;;;4951245;28;20461;-72
2022/12/27 13:45:01;;;;;;;2.80;1.30;;;11.20;29.60;;;;;;4967948;28;20449;-71
2022/12/27 13:47:51;;;;;;;2.80;1.30;;;10.90;30.50;;;;;;4965749;28;20457;-72
2022/12/27 13:50:47;;;;;;;3.10;1.50;;;10.90;30.50;;;;;;4965990;28;20801;-72
2022/12/27 13:53:38;;;;;;;2.83;1.40;;;10.80;30.80;;;;;;4984003;28;21099;-74
2022/12/27 13:56:30;;;;;;;3.10;1.50;;;11.10;30.20;;;;;;4971664;28;20457;-73
2022/12/27 13:59:33;;;;;;;2.70;1.20;;;11.20;30.60;;;;;;4962604;28;20439;-72
2022/12/27 14:02:17;;;;;;;2.70;1.20;;;11.30;30.80;;;;;;4967888;28;20434;-71
2022/12/27 14:04:42;;;;;;;2.80;1.40;;;11.30;30.60;;;;;;4971741;28;20426;-71
2022/12/27 14:07:17;;;;;;;2.77;1.37;;;10.90;30.80;;;;;;4970290;28;20462;-71
2022/12/27 14:10:07;;;;;;;2.70;1.30;;;11.00;30.70;;;;;;4967938;28;20175;-72
2022/12/27 14:12:52;;;;;;;2.70;1.30;;;10.50;31.80;;;;;;4966604;28;20458;-72
2022/12/27 14:15:23;;;;;;;2.63;1.23;;;10.40;32.20;;;;;;4963751;28;20433;-72
2022/12/27 14:18:04;;;;;;;2.70;1.40;;;10.30;33.00;;;;;;4963194;28;20763;-73
2022/12/27 14:21:03;;;;;;;2.50;1.20;;;11.10;31.90;;;;;;4955995;28;20462;-74
2022/12/27 14:23:40;;;;;;;2.50;1.30;;;11.60;33.80;;;;;;4970377;28;20426;-71
2022/12/27 14:26:26;;;;;;;2.38;1.17;;;11.80;33.30;;;;;;4969920;28;20634;-71
2022/12/27 14:29:06;;;;;;;2.40;1.30;;;12.10;32.20;;;;;;4968904;28;20197;-71
2022/12/27 14:32:06;;;;;;;2.20;1.20;;;11.90;33.00;;;;;;4959253;28;20454;-72
2022/12/27 14:35:16;;;;;;;2.20;1.10;;;11.80;30.00;;;;;;4962788;28;20453;-73
2022/12/27 14:38:08;;;;;;;2.40;1.50;;;11.90;29.50;;;;;;4954998;28;20272;-75
2022/12/27 14:40:37;;;;;;;2.20;1.20;;;11.80;29.70;;;;;;4957494;28;20179;-72
2022/12/27 14:43:45;;;;;;;2.20;1.30;;;11.80;31.90;;;;;;4972080;28;20202;-77
2022/12/27 14:46:48;;;;;;;2.10;1.10;;;11.60;30.30;;;;;;4972183;28;20595;-71
2022/12/27 14:49:32;;;;;;;2.10;1.10;;;11.70;30.60;;;;;;4972601;28;20178;-72
2022/12/27 14:52:18;;;;;;;2.20;1.30;;;11.50;33.10;;;;;;4972260;28;20173;-72
2022/12/27 14:54:58;;;;;;;2.75;1.70;;;11.30;32.00;;;;;;4957831;28;20183;-75
2022/12/27 14:57:54;;;;;;;2.10;1.10;;;11.50;31.60;;;;;;4968949;28;20646;-72
2022/12/27 15:00:23;;;;;;;2.00;1.20;;;11.30;32.60;;;;;;4964117;28;20197;-72
2022/12/27 15:03:10;;;;;;;2.13;1.25;;;11.40;30.90;;;;;;4975194;28;20694;-72
2022/12/27 15:06:01;;;;;;;2.00;1.10;;;11.40;32.50;;;;;;4968074;28;20189;-72
2022/12/27 15:08:41;;;;;;;2.10;1.20;;;11.20;34.10;;;;;;4971128;28;20287;-76